Terminal Aerodrome Forecast
Issued by NWS Greer, SC

Home | Current Version | Previous Version | Text Only | Print | Product List | Glossary On
Versions: 1 2 3 4 5 6 7 8 9 10 11 12
000
FTUS42 KGSP 221144
TAFGSP
TAF
KGSP 221144Z 2212/2312 03004KT P6SM FEW040 SCT250
     FM221700 09006KT P6SM SCT050 BKN220
     FM222000 10006KT P6SM BKN045
     FM230400 08005KT P6SM OVC020 PROB30 2304/2308 4SM -SHRA OVC008
     FM230800 09007KT 5SM -SHRA BR OVC003=

USA.gov is the U.S. government's official web portal to all federal, state and local government web resources and services.